sensor_id;sensor_type;location;lat;lon;timestamp;pressure;altitude;pressure_sealevel;temperature;humidity
68199;BME280;55021;51.554;17.044;2023-06-14T00:10:26;100632.94;;;8.93;74.46
68199;BME280;55021;51.554;17.044;2023-06-14T00:41:22;100619.84;;;9.53;75.33
68199;BME280;55021;51.554;17.044;2023-06-14T00:56:29;100623.31;;;10.08;72.77
68199;BME280;55021;51.554;17.044;2023-06-14T01:59:51;100575.69;;;12.08;69.19
68199;BME280;55021;51.554;17.044;2023-06-14T02:15:21;100561.56;;;11.96;71.45
68199;BME280;55021;51.554;17.044;2023-06-14T02:30:54;100573.34;;;11.47;73.23
68199;BME280;55021;51.554;17.044;2023-06-14T02:45:58;100664.81;;;12.04;73.45
68199;BME280;55021;51.554;17.044;2023-06-14T03:01:02;100609.16;;;12.65;69.90
68199;BME280;55021;51.554;17.044;2023-06-14T03:32:00;100672.72;;;12.72;74.26
68199;BME280;55021;51.554;17.044;2023-06-14T04:35:13;100599.66;;;14.91;66.95
68199;BME280;55021;51.554;17.044;2023-06-14T04:50:21;100645.03;;;15.07;69.37
68199;BME280;55021;51.554;17.044;2023-06-14T05:21:07;100703.22;;;15.44;71.89
68199;BME280;55021;51.554;17.044;2023-06-14T05:36:23;100716.47;;;16.06;70.05
68199;BME280;55021;51.554;17.044;2023-06-14T05:51:41;100629.06;;;15.33;71.88
68199;BME280;55021;51.554;17.044;2023-06-14T06:07:12;100712.13;;;16.90;68.62
68199;BME280;55021;51.554;17.044;2023-06-14T06:22:31;100711.91;;;17.68;65.25
68199;BME280;55021;51.554;17.044;2023-06-14T07:24:51;100684.00;;;18.79;58.83
68199;BME280;55021;51.554;17.044;2023-06-14T07:56:19;100761.56;;;18.87;59.53
68199;BME280;55021;51.554;17.044;2023-06-14T08:27:34;100750.19;;;19.62;55.87
68199;BME280;55021;51.554;17.044;2023-06-14T08:58:42;100687.19;;;20.88;49.35
68199;BME280;55021;51.554;17.044;2023-06-14T09:14:00;100690.94;;;21.42;46.66
68199;BME280;55021;51.554;17.044;2023-06-14T09:29:10;100663.53;;;20.67;48.68
68199;BME280;55021;51.554;17.044;2023-06-14T09:44:19;100676.13;;;20.18;50.00
68199;BME280;55021;51.554;17.044;2023-06-14T09:59:57;100754.63;;;20.34;48.21
68199;BME280;55021;51.554;17.044;2023-06-14T10:15:00;100730.31;;;19.28;50.47
68199;BME280;55021;51.554;17.044;2023-06-14T10:30:15;100765.94;;;18.56;56.84
68199;BME280;55021;51.554;17.044;2023-06-14T11:01:41;100755.25;;;19.72;51.94
68199;BME280;55021;51.554;17.044;2023-06-14T11:16:59;100706.41;;;18.82;52.17
68199;BME280;55021;51.554;17.044;2023-06-14T11:32:16;100749.06;;;19.90;50.39
68199;BME280;55021;51.554;17.044;2023-06-14T11:47:41;100740.31;;;20.25;49.45
68199;BME280;55021;51.554;17.044;2023-06-14T12:03:15;100619.56;;;20.54;47.26
68199;BME280;55021;51.554;17.044;2023-06-14T12:18:46;100699.47;;;22.62;43.34
68199;BME280;55021;51.554;17.044;2023-06-14T12:33:52;100625.59;;;22.09;44.00
68199;BME280;55021;51.554;17.044;2023-06-14T13:04:41;100589.88;;;20.56;46.92
68199;BME280;55021;51.554;17.044;2023-06-14T13:19:44;100595.09;;;20.08;49.25
68199;BME280;55021;51.554;17.044;2023-06-14T13:34:48;100650.81;;;20.97;48.16
68199;BME280;55021;51.554;17.044;2023-06-14T13:49:56;100707.03;;;19.50;53.18
68199;BME280;55021;51.554;17.044;2023-06-14T14:05:19;100706.66;;;19.14;53.99
68199;BME280;55021;51.554;17.044;2023-06-14T15:37:52;100647.72;;;20.56;51.98
68199;BME280;55021;51.554;17.044;2023-06-14T15:52:55;100560.66;;;21.04;50.19
68199;BME280;55021;51.554;17.044;2023-06-14T16:08:13;100630.25;;;21.42;51.76
68199;BME280;55021;51.554;17.044;2023-06-14T16:23:16;100578.31;;;19.78;54.93
68199;BME280;55021;51.554;17.044;2023-06-14T16:38:19;100687.69;;;19.89;57.34
68199;BME280;55021;51.554;17.044;2023-06-14T16:53:22;100651.59;;;19.59;57.28
68199;BME280;55021;51.554;17.044;2023-06-14T17:08:24;100697.66;;;19.77;57.62
68199;BME280;55021;51.554;17.044;2023-06-14T17:23:27;100637.28;;;19.31;58.83
68199;BME280;55021;51.554;17.044;2023-06-14T17:38:29;100655.69;;;18.78;60.51
68199;BME280;55021;51.554;17.044;2023-06-14T17:53:32;100672.56;;;19.47;59.92
68199;BME280;55021;51.554;17.044;2023-06-14T18:08:35;100628.97;;;18.26;62.75
68199;BME280;55021;51.554;17.044;2023-06-14T18:23:58;100653.56;;;17.87;63.93
68199;BME280;55021;51.554;17.044;2023-06-14T18:39:12;100656.31;;;17.87;64.98
68199;BME280;55021;51.554;17.044;2023-06-14T18:54:14;100654.91;;;17.29;66.58
68199;BME280;55021;51.554;17.044;2023-06-14T19:09:17;100653.69;;;17.04;67.34
68199;BME280;55021;51.554;17.044;2023-06-14T19:24:20;100698.59;;;17.09;66.01
68199;BME280;55021;51.554;17.044;2023-06-14T19:39:23;100691.81;;;15.85;71.62
68199;BME280;55021;51.554;17.044;2023-06-14T19:54:25;100659.50;;;15.59;71.43
68199;BME280;55021;51.554;17.044;2023-06-14T20:09:30;100661.53;;;16.22;68.64
68199;BME280;55021;51.554;17.044;2023-06-14T20:24:33;100755.25;;;15.95;73.53
68199;BME280;55021;51.554;17.044;2023-06-14T20:39:36;100704.84;;;16.18;72.22
68199;BME280;55021;51.554;17.044;2023-06-14T21:10:30;100736.00;;;16.03;72.83
68199;BME280;55021;51.554;17.044;2023-06-14T21:25:38;100770.38;;;16.77;70.61
68199;BME280;55021;51.554;17.044;2023-06-14T21:40:43;100658.69;;;15.07;74.79
68199;BME280;55021;51.554;17.044;2023-06-14T21:55:52;100688.50;;;15.89;72.77
68199;BME280;55021;51.554;17.044;2023-06-14T22:26:24;100710.97;;;15.55;73.60
68199;BME280;55021;51.554;17.044;2023-06-14T22:41:26;100721.41;;;15.96;72.76
68199;BME280;55021;51.554;17.044;2023-06-14T22:56:45;100683.28;;;16.09;71.75
68199;BME280;55021;51.554;17.044;2023-06-14T23:11:47;100651.13;;;15.61;73.65
68199;BME280;55021;51.554;17.044;2023-06-14T23:26:55;100639.94;;;15.55;73.33
68199;BME280;55021;51.554;17.044;2023-06-14T23:42:00;100649.59;;;15.29;74.75
68199;BME280;55021;51.554;17.044;2023-06-14T23:57:13;100696.31;;;15.48;74.39
